Time;durP1;ratioP1;P1;durP2;ratioP2;P2;SDS_P1;SDS_P2;PMS_P1;PMS_P2;Temp;Humidity;BMP_temperature;BMP_pressure;BME280_temperature;BME280_humidity;BME280_pressure;Samples;Min_cycle;Max_cycle;Signal;HPM_P1;HPM_P2
2023/10/02 00:01:47;;;;;;;11.20;5.93;;;;;;;20.80;69.44;100981.97;5067440;28;20158;-58
2023/10/02 00:04:16;;;;;;;10.70;5.73;;;;;;;20.78;69.14;100975.75;5065916;28;20428;-58
2023/10/02 00:06:42;;;;;;;13.57;7.00;;;;;;;20.78;69.49;100978.63;5066035;28;20567;-58
2023/10/02 00:09:07;;;;;;;10.70;5.67;;;;;;;20.79;69.61;100976.59;5061539;28;20917;-58
2023/10/02 00:11:36;;;;;;;11.83;6.63;;;;;;;20.77;69.71;100974.09;5062188;28;20198;-58
2023/10/02 00:14:19;;;;;;;11.87;5.93;;;;;;;20.79;69.68;100965.13;5067513;28;20288;-59
2023/10/02 00:19:27;;;;;;;11.73;6.17;;;;;;;20.78;69.44;100964.28;5053192;28;21302;-59
2023/10/02 00:22:05;;;;;;;10.70;6.10;;;;;;;20.77;69.81;100956.88;5068638;28;20863;-59
2023/10/02 00:24:32;;;;;;;11.87;5.70;;;;;;;20.77;69.89;100962.63;5069611;28;20443;-59
2023/10/02 00:26:58;;;;;;;11.53;5.83;;;;;;;20.77;69.56;100961.81;5068433;28;20452;-58
2023/10/02 00:29:28;;;;;;;13.27;5.77;;;;;;;20.77;69.94;100958.94;5069494;28;20434;-59
2023/10/02 00:31:53;;;;;;;9.07;5.10;;;;;;;20.77;69.78;100959.75;5069055;28;20577;-58
2023/10/02 00:34:31;;;;;;;12.40;6.33;;;;;;;20.77;69.60;100958.94;5067978;28;20509;-59
2023/10/02 00:36:59;;;;;;;13.23;6.63;;;;;;;20.77;69.77;100961.81;5068176;28;20555;-59
2023/10/02 00:39:25;;;;;;;10.43;5.23;;;;;;;20.76;69.85;100955.22;5067892;28;20476;-58
2023/10/02 00:50:19;;;;;;;10.43;5.43;;;;;;;20.76;69.87;100951.53;5066837;28;20441;-59
2023/10/02 00:52:49;;;;;;;11.73;5.27;;;;;;;20.75;69.72;100938.38;5067123;28;20423;-58
2023/10/02 00:55:22;;;;;;;9.03;4.97;;;;;;;20.75;70.18;100942.09;5057831;28;20433;-58
2023/10/02 00:57:50;;;;;;;9.87;5.60;;;;;;;20.75;70.32;100942.09;5047560;28;20794;-59
2023/10/02 01:00:42;;;;;;;8.87;4.70;;;;;;;20.75;70.00;100942.09;5063175;28;20556;-58
2023/10/02 01:03:09;;;;;;;9.50;4.93;;;;;;;20.74;69.64;100940.44;5049186;28;20426;-59
2023/10/02 01:05:41;;;;;;;10.60;5.60;;;;;;;20.74;69.90;100933.88;5064183;28;20435;-58
2023/10/02 01:08:42;;;;;;;9.30;5.23;;;;;;;20.75;69.82;100935.50;5064656;28;20476;-58
2023/10/02 01:11:11;;;;;;;10.90;4.60;;;;;;;20.74;70.06;100936.72;5058830;28;21054;-58
2023/10/02 01:13:39;;;;;;;10.73;5.40;;;;;;;20.74;69.60;100936.72;5059440;28;20884;-59
2023/10/02 01:16:08;;;;;;;8.67;4.77;;;;;;;20.74;70.21;100933.88;5069066;28;20508;-58
2023/10/02 01:18:35;;;;;;;11.70;5.13;;;;;;;20.74;69.94;100939.59;5067953;28;20225;-58
2023/10/02 01:21:09;;;;;;;11.87;6.03;;;;;;;20.73;69.67;100930.16;5060104;28;20462;-58
2023/10/02 01:24:07;;;;;;;8.50;5.03;;;;;;;20.73;70.11;100941.63;5057142;28;20413;-59
2023/10/02 01:26:37;;;;;;;10.10;5.30;;;;;;;20.73;69.71;100944.50;5061101;28;20501;-58
2023/10/02 01:29:04;;;;;;;10.60;5.97;;;;;;;20.72;70.05;100945.72;5048696;28;20740;-58
2023/10/02 01:31:42;;;;;;;8.77;4.70;;;;;;;20.73;69.64;100938.75;5058633;28;20461;-58
2023/10/02 01:34:10;;;;;;;10.27;5.47;;;;;;;20.72;70.14;100937.09;5063751;28;20437;-58
2023/10/02 01:36:38;;;;;;;9.10;4.90;;;;;;;20.72;69.95;100936.28;5067795;28;20851;-58
2023/10/02 01:39:14;;;;;;;10.40;5.70;;;;;;;20.73;69.96;100943.69;5050517;28;20407;-59
2023/10/02 01:41:52;;;;;;;11.17;6.30;;;;;;;20.72;70.37;100948.59;5063277;28;20779;-59
2023/10/02 01:44:22;;;;;;;8.23;4.80;;;;;;;20.71;70.12;100944.06;5068173;28;20393;-59
2023/10/02 01:46:52;;;;;;;9.80;6.00;;;;;;;20.71;70.18;100934.59;5041588;28;20421;-59
2023/10/02 01:49:24;;;;;;;10.77;4.70;;;;;;;20.71;69.93;100934.59;5071392;28;20436;-59
2023/10/02 01:52:01;;;;;;;9.17;4.37;;;;;;;20.71;70.34;100937.47;5070314;28;20468;-59
2023/10/02 01:54:29;;;;;;;10.00;5.70;;;;;;;20.71;70.00;100946.09;5069852;28;20416;-59
2023/10/02 01:56:55;;;;;;;8.87;5.10;;;;;;;20.71;70.24;100938.31;5071747;28;20404;-59
2023/10/02 01:59:21;;;;;;;10.27;5.07;;;;;;;20.70;69.99;100945.28;5069950;28;20413;-59
2023/10/02 02:02:20;;;;;;;8.77;4.97;;;;;;;20.71;70.14;100938.31;5070494;28;20862;-58
2023/10/02 02:04:39;;;;;;;8.00;4.57;;;;;;;20.71;69.96;100928.88;5067922;28;20422;-59
2023/10/02 02:07:08;;;;;;;12.17;5.87;;;;;;;20.70;70.02;100936.66;5069689;28;20441;-59
2023/10/02 02:09:37;;;;;;;8.90;4.83;;;;;;;20.70;70.34;100933.81;5064990;28;20172;-59
2023/10/02 02:12:05;;;;;;;9.47;5.60;;;;;;;20.69;70.40;100932.16;5066811;28;20507;-59
2023/10/02 02:14:40;;;;;;;7.10;4.37;;;;;;;20.70;70.28;100938.69;5069610;28;20430;-59
2023/10/02 02:17:10;;;;;;;9.07;5.33;;;;;;;20.69;69.99;100932.16;5065758;28;20458;-59
2023/10/02 02:19:44;;;;;;;10.70;5.07;;;;;;;20.70;70.15;100927.22;5070702;28;20935;-59
2023/10/02 02:22:10;;;;;;;8.33;4.60;;;;;;;20.69;70.13;100926.41;5071490;28;21145;-59
2023/10/02 02:24:38;;;;;;;10.40;5.60;;;;;;;20.68;70.19;100930.47;5070127;28;20410;-59
2023/10/02 02:27:06;;;;;;;10.53;5.50;;;;;;;20.69;69.92;100940.75;5071172;28;20179;-59
2023/10/02 02:29:33;;;;;;;8.17;4.70;;;;;;;20.68;70.52;100930.47;5071258;28;20441;-59
2023/10/02 02:31:59;;;;;;;9.60;5.03;;;;;;;20.69;70.43;100925.56;5071378;28;20413;-59
2023/10/02 02:34:25;;;;;;;8.60;5.07;;;;;;;20.67;70.22;100931.69;5069702;28;21422;-59
2023/10/02 02:36:50;;;;;;;10.50;5.00;;;;;;;20.68;70.57;100936.19;5070868;28;20179;-59
2023/10/02 02:39:17;;;;;;;9.00;4.93;;;;;;;20.68;69.97;100944.81;5069295;28;20756;-59
2023/10/02 02:41:44;;;;;;;7.37;4.27;;;;;;;20.67;70.52;100943.16;5054730;28;20265;-59
2023/10/02 02:46:54;;;;;;;9.27;4.90;;;;;;;20.67;70.32;100942.34;5069449;28;20452;-59
2023/10/02 02:49:21;;;;;;;8.53;4.90;;;;;;;20.67;69.89;100946.03;5069688;28;20830;-59
2023/10/02 02:51:48;;;;;;;9.77;4.97;;;;;;;20.67;70.34;100943.16;5069244;28;20221;-59
2023/10/02 02:54:15;;;;;;;10.53;5.37;;;;;;;20.66;70.21;100944.38;5070365;28;20806;-59
2023/10/02 02:56:41;;;;;;;7.80;4.60;;;;;;;20.66;70.41;100940.66;5070930;28;20478;-59
2023/10/02 02:59:08;;;;;;;11.60;5.43;;;;;;;20.66;69.82;100947.25;5065174;28;20448;-59
2023/10/02 03:01:33;;;;;;;8.03;4.30;;;;;;;20.66;70.44;100935.75;5070933;28;20207;-59
2023/10/02 03:04:11;;;;;;;10.20;4.40;;;;;;;20.66;70.30;100938.63;5069233;28;20456;-58
2023/10/02 03:06:36;;;;;;;8.77;4.77;;;;;;;20.66;70.56;100943.53;5070192;28;20182;-59
2023/10/02 03:09:05;;;;;;;9.20;4.97;;;;;;;20.65;70.27;100939.84;5070088;28;20425;-59
2023/10/02 03:11:32;;;;;;;11.03;4.80;;;;;;;20.65;70.24;100936.13;5069548;28;20175;-58
2023/10/02 03:14:12;;;;;;;9.30;4.77;;;;;;;20.65;70.05;100945.59;5069881;28;20452;-59
2023/10/02 03:16:38;;;;;;;6.70;4.20;;;;;;;20.65;70.62;100947.63;5069230;28;20441;-59
2023/10/02 03:19:07;;;;;;;10.10;5.00;;;;;;;20.65;70.68;100944.75;5055504;28;20480;-59
2023/10/02 03:21:34;;;;;;;7.37;4.03;;;;;;;20.64;70.52;100946.81;5055575;28;20523;-58
2023/10/02 03:24:01;;;;;;;8.03;4.27;;;;;;;20.64;69.57;100955.41;5070275;28;20429;-58
2023/10/02 03:29:04;;;;;;;8.53;4.20;;;;;;;20.64;70.25;100954.56;5064849;28;20531;-58
2023/10/02 03:31:49;;;;;;;9.90;5.10;;;;;;;20.64;70.68;100957.44;5062335;28;20418;-59
2023/10/02 03:34:30;;;;;;;8.87;4.70;;;;;;;20.63;70.30;100956.59;5057780;28;20472;-59
2023/10/02 03:39:53;;;;;;;7.87;4.33;;;;;;;20.64;70.79;100948.81;5052184;28;20456;-58
2023/10/02 03:42:22;;;;;;;8.03;4.40;;;;;;;20.62;70.31;100952.06;5055303;28;21130;-59
2023/10/02 03:44:50;;;;;;;6.80;4.10;;;;;;;20.62;70.44;100954.94;5059900;28;20425;-59
2023/10/02 03:47:15;;;;;;;9.17;4.97;;;;;;;20.63;70.39;100956.59;5052139;28;20438;-59
2023/10/02 03:49:42;;;;;;;6.83;4.17;;;;;;;20.62;70.57;100952.06;5049058;28;20414;-59
2023/10/02 03:52:08;;;;;;;8.90;4.57;;;;;;;20.62;70.38;100949.19;5075257;28;20219;-58
2023/10/02 03:54:34;;;;;;;10.20;4.53;;;;;;;20.63;70.49;100950.84;5049794;28;20406;-59
2023/10/02 03:57:01;;;;;;;6.63;3.90;;;;;;;20.62;70.15;100960.69;5057037;28;20187;-59
2023/10/02 03:59:31;;;;;;;6.63;3.80;;;;;;;20.62;70.17;100952.06;5069596;28;20424;-59
2023/10/02 04:02:24;;;;;;;6.93;4.17;;;;;;;20.62;70.60;100946.34;5068300;28;20425;-59
2023/10/02 04:04:43;;;;;;;10.00;4.67;;;;;;;20.62;70.26;100945.53;5065747;28;20417;-59
2023/10/02 04:07:10;;;;;;;8.70;4.87;;;;;;;20.62;70.50;100954.13;5068103;28;20422;-58
2023/10/02 04:09:36;;;;;;;9.50;4.23;;;;;;;20.61;70.71;100956.16;5066478;28;20194;-59
2023/10/02 04:12:04;;;;;;;11.00;4.23;;;;;;;20.61;70.47;100955.31;5051788;28;20430;-59
2023/10/02 04:14:32;;;;;;;6.10;3.70;;;;;;;20.60;70.03;100945.06;5051609;28;20208;-59
2023/10/02 04:17:21;;;;;;;8.93;4.63;;;;;;;20.61;70.10;100943.84;5067934;28;20498;-59
2023/10/02 04:19:49;;;;;;;7.07;4.10;;;;;;;20.59;70.34;100941.38;5065382;28;20488;-59
2023/10/02 04:22:25;;;;;;;7.60;4.73;;;;;;;20.60;70.54;100939.31;5065336;28;20448;-58
2023/10/02 04:24:54;;;;;;;8.20;4.40;;;;;;;20.60;70.82;100934.41;5067375;28;20439;-58
2023/10/02 04:32:39;;;;;;;7.40;4.33;;;;;;;20.60;70.62;100942.19;5068732;28;20410;-59
2023/10/02 04:35:43;;;;;;;5.90;3.70;;;;;;;20.59;70.13;100949.97;5068080;28;20410;-59
2023/10/02 04:37:52;;;;;;;7.93;4.27;;;;;;;20.58;70.27;100939.69;5066873;28;20441;-60
2023/10/02 04:40:23;;;;;;;8.53;4.43;;;;;;;20.59;70.31;100941.38;5068162;28;20502;-58
2023/10/02 04:42:58;;;;;;;8.00;4.50;;;;;;;20.58;70.63;100950.34;5068348;28;20190;-59
2023/10/02 04:45:26;;;;;;;7.20;3.93;;;;;;;20.58;70.68;100941.75;5069249;28;20432;-58
2023/10/02 04:47:54;;;;;;;7.23;4.17;;;;;;;20.58;70.29;100941.75;5061643;28;20460;-58
2023/10/02 04:53:19;;;;;;;7.20;4.37;;;;;;;20.58;70.46;100947.50;5069108;28;20936;-59
2023/10/02 04:55:48;;;;;;;8.47;4.10;;;;;;;20.57;70.12;100949.50;5069186;28;20420;-59
2023/10/02 04:58:20;;;;;;;5.73;3.57;;;;;;;20.56;70.10;100945.00;5069253;28;20861;-58
2023/10/02 05:03:31;;;;;;;6.60;3.80;;;;;;;20.56;70.48;100947.84;5069536;28;20409;-59
2023/10/02 05:05:59;;;;;;;7.27;3.63;;;;;;;20.57;70.51;100942.97;5068144;28;20463;-59
2023/10/02 05:08:37;;;;;;;8.10;4.40;;;;;;;20.56;70.38;100950.72;5068848;28;20474;-59
2023/10/02 05:11:06;;;;;;;7.80;3.90;;;;;;;20.56;70.47;100942.13;5058080;28;20426;-59
2023/10/02 05:13:45;;;;;;;8.93;4.53;;;;;;;20.55;70.15;100949.06;5067576;28;20455;-59
2023/10/02 05:16:13;;;;;;;8.20;4.50;;;;;;;20.57;70.36;100945.84;5066471;28;20424;-59
2023/10/02 05:18:47;;;;;;;6.63;3.57;;;;;;;20.55;70.47;100948.22;5068606;28;20518;-59
2023/10/02 05:21:17;;;;;;;7.70;3.97;;;;;;;20.55;70.16;100948.22;5068693;28;20975;-58
2023/10/02 05:24:00;;;;;;;7.17;4.30;;;;;;;20.55;70.08;100951.94;5070560;28;20444;-59
2023/10/02 05:26:42;;;;;;;6.83;4.00;;;;;;;20.55;70.62;100954.81;5066261;28;20420;-58
2023/10/02 05:29:16;;;;;;;7.00;3.90;;;;;;;20.55;70.50;100960.56;5068775;28;20417;-59
2023/10/02 05:31:41;;;;;;;7.50;4.47;;;;;;;20.55;69.99;100963.41;5069947;28;20429;-59
2023/10/02 05:34:16;;;;;;;8.20;4.60;;;;;;;20.54;70.52;100964.63;5068655;28;20459;-59
2023/10/02 05:37:00;;;;;;;6.87;3.70;;;;;;;20.54;70.49;100964.63;5069228;28;20162;-58
2023/10/02 05:39:31;;;;;;;7.33;4.03;;;;;;;20.54;70.74;100970.38;5072169;28;20428;-58
2023/10/02 05:42:05;;;;;;;7.90;4.13;;;;;;;20.54;70.52;100969.53;5059135;28;20924;-59
2023/10/02 05:44:37;;;;;;;7.33;4.00;;;;;;;20.53;70.57;100968.69;5057342;28;20739;-58
2023/10/02 05:47:06;;;;;;;5.00;3.03;;;;;;;20.53;70.65;100973.63;5052066;28;20430;-58
2023/10/02 05:49:32;;;;;;;7.03;3.83;;;;;;;20.53;70.39;100973.63;5070883;28;20508;-59
2023/10/02 05:52:00;;;;;;;6.30;3.60;;;;;;;20.53;70.44;100976.47;5067456;28;20923;-58
2023/10/02 05:54:35;;;;;;;5.83;3.63;;;;;;;20.53;70.27;100967.88;5070892;28;20970;-59
2023/10/02 05:57:12;;;;;;;6.50;3.90;;;;;;;20.53;70.57;100970.75;5071888;28;20413;-58
2023/10/02 05:59:44;;;;;;;6.87;3.90;;;;;;;20.53;70.40;100974.41;5066927;28;20810;-58
2023/10/02 06:02:19;;;;;;;7.47;4.00;;;;;;;20.52;70.48;100978.50;5071779;28;20470;-59
2023/10/02 06:04:48;;;;;;;6.00;3.90;;;;;;;20.52;70.31;100969.91;5071845;28;20466;-58
2023/10/02 06:07:19;;;;;;;7.93;4.60;;;;;;;20.52;70.11;100978.50;5070653;28;20666;-58
2023/10/02 06:09:47;;;;;;;6.70;3.47;;;;;;;20.51;70.17;100976.84;5071417;28;20440;-59
2023/10/02 06:12:13;;;;;;;6.27;3.73;;;;;;;20.52;70.45;100978.50;5069712;28;20441;-58
2023/10/02 06:14:39;;;;;;;6.40;3.30;;;;;;;20.52;70.03;100989.16;5069994;28;20453;-58
2023/10/02 06:17:11;;;;;;;6.43;3.60;;;;;;;20.51;70.45;100985.47;5053435;28;20479;-59
2023/10/02 06:19:42;;;;;;;8.47;3.90;;;;;;;20.51;70.15;100982.59;5067906;28;20222;-59
2023/10/02 06:22:09;;;;;;;6.53;3.60;;;;;;;20.50;70.78;100983.81;5069095;28;20482;-58
2023/10/02 06:24:35;;;;;;;7.23;4.00;;;;;;;20.51;70.38;100981.75;5068798;28;20451;-59
2023/10/02 06:27:14;;;;;;;7.63;3.60;;;;;;;20.50;70.45;100986.66;5070435;28;20413;-59
2023/10/02 06:29:40;;;;;;;5.70;3.00;;;;;;;20.49;70.53;100990.75;5065131;28;20198;-58
2023/10/02 06:32:09;;;;;;;6.73;3.80;;;;;;;20.50;70.59;100992.41;5068698;28;20444;-58
2023/10/02 06:34:39;;;;;;;5.47;3.60;;;;;;;20.49;70.14;100993.63;5066621;28;20456;-59
2023/10/02 06:37:08;;;;;;;5.23;3.57;;;;;;;20.49;69.98;100996.50;5067543;28;20939;-59
2023/10/02 06:39:35;;;;;;;6.60;3.47;;;;;;;20.49;70.43;100992.78;5070765;28;20456;-59
2023/10/02 06:42:04;;;;;;;5.50;3.20;;;;;;;20.50;70.34;100998.16;5068604;28;20445;-59
2023/10/02 06:44:42;;;;;;;5.97;3.20;;;;;;;20.49;70.10;100996.50;5070156;28;20432;-59
2023/10/02 06:47:11;;;;;;;7.23;3.53;;;;;;;20.49;70.12;100989.91;5052463;28;20422;-59
2023/10/02 06:49:41;;;;;;;5.47;3.17;;;;;;;20.50;70.37;100995.28;5057779;28;20772;-58
2023/10/02 06:52:16;;;;;;;6.40;3.53;;;;;;;20.48;70.03;100997.72;5060434;28;20472;-59
2023/10/02 06:54:45;;;;;;;4.30;2.77;;;;;;;20.48;70.67;100994.84;5055369;28;20498;-58
2023/10/02 06:57:11;;;;;;;6.40;3.60;;;;;;;20.48;70.38;100994.84;5068516;28;20452;-59
2023/10/02 06:59:41;;;;;;;5.40;3.10;;;;;;;20.48;70.10;101003.44;5070915;28;20532;-59
2023/10/02 07:02:09;;;;;;;6.50;3.50;;;;;;;20.48;70.21;101000.56;5070653;28;20783;-58
2023/10/02 07:04:35;;;;;;;7.70;3.07;;;;;;;20.48;70.20;101000.56;5070950;28;20470;-58
2023/10/02 07:07:04;;;;;;;7.40;3.80;;;;;;;20.48;70.09;100999.72;5069547;28;20433;-58
2023/10/02 07:09:35;;;;;;;6.60;3.50;;;;;;;20.47;70.06;100998.88;5054367;28;20430;-58
2023/10/02 07:12:13;;;;;;;6.40;3.53;;;;;;;20.47;69.91;101000.94;5057285;28;20520;-59
2023/10/02 07:14:39;;;;;;;6.77;3.47;;;;;;;20.48;70.09;101000.56;5058476;28;20496;-58
2023/10/02 07:17:16;;;;;;;6.27;3.70;;;;;;;20.48;70.42;100999.72;5055452;28;20517;-59
2023/10/02 07:19:52;;;;;;;6.20;3.80;;;;;;;20.47;69.95;100996.03;5052266;28;20511;-58
2023/10/02 07:22:18;;;;;;;6.40;3.60;;;;;;;20.47;70.56;101004.63;5049155;28;20780;-59
2023/10/02 07:24:46;;;;;;;6.50;3.23;;;;;;;20.48;70.01;100999.72;5047981;28;20430;-58
2023/10/02 07:27:28;;;;;;;6.40;3.53;;;;;;;20.47;69.82;101004.63;5055769;28;20433;-59
2023/10/02 07:29:55;;;;;;;5.80;3.53;;;;;;;20.47;70.49;101010.38;5053751;28;20425;-58
2023/10/02 07:32:21;;;;;;;5.97;3.20;;;;;;;20.47;70.21;101007.50;5050243;28;20913;-59
2023/10/02 07:34:50;;;;;;;5.00;3.20;;;;;;;20.46;70.02;101005.84;5050066;28;20534;-58
2023/10/02 07:37:21;;;;;;;6.20;3.20;;;;;;;20.47;70.27;101004.63;5063128;28;20479;-59
2023/10/02 07:39:48;;;;;;;7.07;3.67;;;;;;;20.48;70.20;101005.47;5053652;28;20446;-58
2023/10/02 07:42:16;;;;;;;6.43;3.67;;;;;;;20.47;70.01;100998.06;5068140;28;20566;-58
2023/10/02 07:44:41;;;;;;;5.87;3.17;;;;;;;20.46;70.16;101000.09;5070213;28;20798;-58
2023/10/02 07:47:10;;;;;;;5.60;3.80;;;;;;;20.46;70.33;101005.03;5069607;28;20409;-59
2023/10/02 07:49:44;;;;;;;5.33;3.27;;;;;;;20.46;70.47;101000.09;5059470;28;20187;-58
2023/10/02 07:52:09;;;;;;;5.57;3.30;;;;;;;20.47;70.10;101009.56;5056913;28;20525;-58
2023/10/02 07:54:44;;;;;;;4.77;2.70;;;;;;;20.46;70.20;101005.84;5056816;28;21181;-58
2023/10/02 07:57:13;;;;;;;5.57;3.30;;;;;;;20.46;70.30;101007.91;5054223;28;20179;-58
2023/10/02 07:59:40;;;;;;;6.20;3.57;;;;;;;20.46;70.40;100997.22;5049823;28;20910;-58
2023/10/02 08:02:21;;;;;;;5.93;3.20;;;;;;;20.45;70.09;100991.88;5064924;28;20448;-58
2023/10/02 08:04:47;;;;;;;6.20;3.20;;;;;;;20.45;70.18;101001.31;5056448;28;20433;-59
2023/10/02 08:07:13;;;;;;;5.67;3.40;;;;;;;20.45;70.01;101001.31;5048704;28;20422;-58
2023/10/02 08:09:39;;;;;;;5.70;2.97;;;;;;;20.45;70.15;101004.19;5057494;28;20563;-59
2023/10/02 08:12:08;;;;;;;7.93;3.47;;;;;;;20.46;70.20;100991.50;5054180;28;20183;-59
2023/10/02 08:14:52;;;;;;;6.07;3.50;;;;;;;20.46;70.57;101005.84;5063051;28;20506;-59
2023/10/02 08:19:55;;;;;;;4.20;2.60;;;;;;;20.44;70.56;100993.06;5067032;28;20779;-59
2023/10/02 08:22:35;;;;;;;9.10;4.80;;;;;;;20.36;69.79;100999.88;5065099;28;20567;-59
2023/10/02 08:25:05;;;;;;;13.73;6.77;;;;;;;20.24;69.88;100998.00;5049664;28;20460;-59
2023/10/02 08:27:32;;;;;;;14.63;5.90;;;;;;;20.19;69.88;100991.72;5050672;28;20494;-58
2023/10/02 08:30:00;;;;;;;15.97;7.47;;;;;;;20.23;70.06;101001.22;5051403;28;20426;-58
2023/10/02 08:32:30;;;;;;;16.10;7.17;;;;;;;20.27;68.95;101000.09;5048195;28;20433;-59
2023/10/02 08:34:56;;;;;;;17.53;8.20;;;;;;;20.32;69.07;100994.06;5047967;28;20465;-58
2023/10/02 08:37:23;;;;;;;15.63;7.47;;;;;;;20.35;69.25;100995.34;5055196;28;20429;-59
2023/10/02 08:39:51;;;;;;;16.27;7.33;;;;;;;20.38;69.15;101000.34;5054477;28;20453;-59
2023/10/02 08:42:18;;;;;;;19.37;8.10;;;;;;;20.39;68.55;100984.78;5048820;28;20483;-58
2023/10/02 08:44:43;;;;;;;15.27;7.80;;;;;;;20.38;68.62;100983.97;5052487;28;20409;-59
2023/10/02 08:47:12;;;;;;;17.90;8.13;;;;;;;20.41;69.08;100993.84;5058301;28;20445;-58
2023/10/02 08:49:38;;;;;;;18.93;8.23;;;;;;;20.40;68.72;100990.16;5049051;28;20188;-59
2023/10/02 08:52:10;;;;;;;14.23;7.03;;;;;;;20.40;69.20;100984.41;5050097;28;20897;-59
2023/10/02 08:54:39;;;;;;;14.97;7.43;;;;;;;20.40;68.87;100984.41;5059940;28;20463;-59
2023/10/02 08:57:11;;;;;;;16.90;8.63;;;;;;;20.41;68.94;100982.38;5059891;28;20432;-58
2023/10/02 08:59:40;;;;;;;13.40;7.13;;;;;;;20.40;69.17;100984.41;5065992;28;20457;-58
2023/10/02 09:02:16;;;;;;;15.00;6.30;;;;;;;20.41;69.10;100977.47;5062394;28;20506;-59
2023/10/02 09:04:51;;;;;;;18.60;7.80;;;;;;;20.41;69.55;100983.19;5064145;28;20511;-58
2023/10/02 09:07:44;;;;;;;18.00;7.80;;;;;;;20.41;69.01;100986.06;5070385;28;21185;-59
2023/10/02 09:10:26;;;;;;;15.37;7.17;;;;;;;20.42;69.05;100978.31;5068745;28;20434;-59
2023/10/02 09:13:09;;;;;;;15.10;7.50;;;;;;;20.41;69.06;100965.97;5051836;28;20424;-59
2023/10/02 09:15:35;;;;;;;15.70;7.77;;;;;;;20.42;69.21;100975.44;5054780;28;20440;-59
2023/10/02 09:18:19;;;;;;;14.60;7.20;;;;;;;20.41;69.28;100971.72;5052374;28;20466;-59
2023/10/02 09:20:56;;;;;;;15.40;7.23;;;;;;;20.41;69.18;100968.84;5051688;28;20686;-59
2023/10/02 09:23:23;;;;;;;14.00;7.00;;;;;;;20.42;69.40;100975.44;5060359;28;20759;-59
2023/10/02 09:26:16;;;;;;;16.20;7.20;;;;;;;20.42;69.48;100978.31;5054611;28;20522;-59
2023/10/02 09:28:42;;;;;;;12.97;6.63;;;;;;;20.41;69.22;100973.78;5053148;28;20418;-58
2023/10/02 09:31:14;;;;;;;18.47;6.27;;;;;;;20.41;69.71;100968.84;5068439;28;20444;-58
2023/10/02 09:33:40;;;;;;;12.80;5.93;;;;;;;20.41;69.38;100960.25;5065606;28;20677;-58
2023/10/02 09:36:07;;;;;;;11.73;6.13;;;;;;;20.41;69.37;100957.38;5054151;28;20430;-58
2023/10/02 09:38:33;;;;;;;12.10;6.80;;;;;;;20.43;69.53;100954.13;5051758;28;20797;-58
2023/10/02 09:41:15;;;;;;;12.43;7.53;;;;;;;20.43;69.86;100954.13;5059504;28;20473;-58
2023/10/02 09:43:41;;;;;;;13.20;6.30;;;;;;;20.43;69.66;100945.53;5050316;28;20418;-59
2023/10/02 09:46:15;;;;;;;15.27;6.80;;;;;;;20.43;69.42;100939.81;5055519;28;20515;-58
2023/10/02 09:49:03;;;;;;;13.40;6.50;;;;;;;20.42;69.78;100947.56;5078678;28;20500;-58
2023/10/02 09:51:38;;;;;;;13.37;6.87;;;;;;;20.43;69.73;100943.50;5064173;28;20437;-59
2023/10/02 09:54:20;;;;;;;14.37;6.47;;;;;;;20.44;69.41;100942.28;5057357;28;20897;-59
2023/10/02 09:57:24;;;;;;;11.40;6.10;;;;;;;20.43;69.75;100940.63;5058408;28;20484;-58
2023/10/02 09:59:48;;;;;;;14.17;6.20;;;;;;;20.44;69.56;100939.44;5055283;28;20444;-59
2023/10/02 10:07:46;;;;;;;15.27;6.67;;;;;;;20.44;69.72;100927.94;5054248;28;20446;-59
2023/10/02 10:10:49;;;;;;;11.10;6.33;;;;;;;20.45;69.49;100937.38;5050166;28;20414;-59
2023/10/02 10:13:37;;;;;;;14.67;6.97;;;;;;;20.44;69.81;100927.94;5059247;28;20483;-59
2023/10/02 10:16:20;;;;;;;10.13;5.63;;;;;;;20.46;69.70;100925.53;5063852;28;20904;-59
2023/10/02 10:21:55;;;;;;;11.37;5.23;;;;;;;20.45;69.90;100923.03;5071004;28;20452;-58
2023/10/02 10:27:42;;;;;;;11.10;5.77;;;;;;;20.44;70.07;100909.91;5050589;28;20470;-59
2023/10/02 10:30:26;;;;;;;12.30;5.97;;;;;;;20.45;69.67;100908.69;5057876;28;20422;-59
2023/10/02 10:35:36;;;;;;;12.03;6.00;;;;;;;20.44;70.21;100896.41;5054729;28;20452;-59
2023/10/02 10:38:07;;;;;;;14.27;6.70;;;;;;;20.45;69.91;100894.34;5049284;28;21328;-59
2023/10/02 10:40:46;;;;;;;11.93;6.07;;;;;;;20.46;69.60;100893.16;5051275;28;20210;-59
2023/10/02 10:43:16;;;;;;;11.33;5.83;;;;;;;20.44;69.66;100886.97;5050613;28;20417;-58
2023/10/02 10:45:41;;;;;;;11.73;6.97;;;;;;;20.47;69.79;100889.06;5065143;28;20517;-58
2023/10/02 10:48:23;;;;;;;13.30;6.67;;;;;;;20.45;70.30;100880.00;5066015;28;20533;-59
2023/10/02 10:51:06;;;;;;;11.83;5.60;;;;;;;20.48;69.93;100887.84;5069027;28;20175;-59
2023/10/02 10:53:39;;;;;;;12.40;6.43;;;;;;;20.46;69.85;100884.56;5067327;28;20808;-59
2023/10/02 10:56:17;;;;;;;12.37;6.20;;;;;;;20.46;69.80;100882.50;5061625;28;21209;-58
2023/10/02 10:59:10;;;;;;;10.07;5.83;;;;;;;20.46;69.83;100879.63;5049181;28;20491;-59
2023/10/02 11:01:37;;;;;;;12.70;5.83;;;;;;;20.48;69.68;100879.25;5049319;28;20469;-58
2023/10/02 11:04:03;;;;;;;11.67;5.87;;;;;;;20.47;69.83;100878.41;5048510;28;20399;-59
2023/10/02 11:06:29;;;;;;;11.60;6.33;;;;;;;20.46;70.22;100876.75;5063553;28;20532;-58
2023/10/02 11:09:16;;;;;;;11.40;5.30;;;;;;;20.48;70.04;100868.63;5067239;28;20182;-59
2023/10/02 11:11:50;;;;;;;9.70;5.23;;;;;;;20.48;70.26;100867.78;5069714;28;20181;-59
2023/10/02 11:14:22;;;;;;;11.40;5.70;;;;;;;20.48;70.01;100873.53;5067870;28;20510;-59
2023/10/02 11:16:54;;;;;;;10.70;5.63;;;;;;;20.49;69.90;100867.41;5049449;28;20819;-59
2023/10/02 11:19:23;;;;;;;9.53;5.40;;;;;;;20.51;70.18;100855.53;5051252;28;20561;-59
2023/10/02 11:22:19;;;;;;;13.73;5.80;;;;;;;20.49;69.89;100853.06;5062127;28;20454;-58
2023/10/02 11:24:52;;;;;;;11.50;5.63;;;;;;;20.51;70.01;100853.50;5043771;28;20438;-58
2023/10/02 11:27:18;;;;;;;13.47;6.47;;;;;;;20.52;69.86;100848.59;5052586;28;20426;-59
2023/10/02 11:29:45;;;;;;;11.60;5.80;;;;;;;20.51;69.87;100844.06;5069603;28;20429;-58
2023/10/02 11:32:21;;;;;;;10.80;5.50;;;;;;;20.53;70.07;100842.47;5068691;28;20779;-58
2023/10/02 11:34:51;;;;;;;10.27;5.83;;;;;;;20.53;69.91;100842.47;5049690;28;20410;-59
2023/10/02 11:37:17;;;;;;;9.87;5.53;;;;;;;20.54;69.67;100826.94;5052409;28;20428;-58
2023/10/02 11:39:44;;;;;;;13.57;6.43;;;;;;;20.53;69.77;100818.69;5069715;28;20433;-59
2023/10/02 11:42:10;;;;;;;12.17;5.80;;;;;;;20.55;69.70;100810.53;5067551;28;20526;-59
2023/10/02 11:44:35;;;;;;;9.27;5.60;;;;;;;20.55;69.77;100811.38;5066447;28;20460;-59
2023/10/02 11:47:00;;;;;;;12.50;5.57;;;;;;;20.56;70.07;100806.44;5069704;28;20159;-58
2023/10/02 11:49:29;;;;;;;11.67;6.00;;;;;;;20.57;69.59;100806.06;5069530;28;20340;-58
2023/10/02 11:52:02;;;;;;;9.40;5.30;;;;;;;20.56;69.69;100809.31;5064000;28;20179;-59
2023/10/02 11:54:27;;;;;;;10.43;5.57;;;;;;;20.58;69.75;100804.03;5056166;28;20776;-59
2023/10/02 11:56:53;;;;;;;10.50;5.40;;;;;;;20.57;69.79;100802.41;5052091;28;20437;-59
2023/10/02 11:59:19;;;;;;;11.33;5.47;;;;;;;20.57;69.95;100799.53;5065532;28;20186;-58
2023/10/02 12:01:47;;;;;;;13.17;5.67;;;;;;;20.56;69.97;100797.84;5067126;28;20206;-58
2023/10/02 12:04:14;;;;;;;9.53;5.57;;;;;;;20.56;69.78;100784.34;5067807;28;20170;-59
2023/10/02 12:06:40;;;;;;;13.40;6.90;;;;;;;20.57;69.65;100768.78;5068101;28;20421;-59
2023/10/02 12:09:06;;;;;;;11.33;5.60;;;;;;;20.57;69.68;100780.25;5069517;28;20394;-59
2023/10/02 12:11:34;;;;;;;9.77;4.83;;;;;;;20.58;70.21;100781.09;5066732;28;21069;-59
2023/10/02 12:14:00;;;;;;;12.33;5.60;;;;;;;20.59;69.75;100765.53;5064338;28;20260;-58
2023/10/02 12:16:26;;;;;;;11.70;5.23;;;;;;;20.60;70.21;100764.31;5068832;28;20833;-58
2023/10/02 12:18:52;;;;;;;11.73;6.33;;;;;;;20.60;69.73;100762.28;5054190;28;20235;-59
2023/10/02 12:21:19;;;;;;;10.97;5.73;;;;;;;20.59;69.80;100757.75;5050286;28;20461;-58
2023/10/02 12:23:46;;;;;;;11.67;5.40;;;;;;;20.60;69.79;100750.81;5069540;28;20265;-59
2023/10/02 12:26:20;;;;;;;9.20;5.47;;;;;;;20.62;69.92;100741.81;5069551;28;21197;-58
2023/10/02 12:28:46;;;;;;;10.07;5.40;;;;;;;20.61;69.91;100740.97;5067524;28;20460;-59